Winslow Lindbergh Regional Airport
KINW : now visible

Airfield :











YOU CAN JOIN US ON...

 
LOGIN :

Register | Disclaimer

   EN    FR    IT 

 









Legend :    VFR   Marginal VFR   IFR   Intensive IFR   Very Intensive IFR
Visi :
Ceiling :
>= 8 km
>= 3000ft
5 to 8 km
1000 to 3000 ft
1500m to 5 km
500 to 1000 ft
800 to 1500m
200 to 500 ft
< 800m
< 200 ft
Symbols :   Thunderstorms  Fog  Heavy snow  Heavy precipitations  Wind > 20 kt






- Airport Elevation : 4941 ft


KINW - Winslow Lindbergh Regional

CURRENT METAR :
  • 081856Z AUTO 14011KT 10SM FEW095 20/M03 A3007 RMK AO2 SLP141 T02001033

EXPIRED METARs :
  • 081756Z AUTO 15012G22KT 10SM SCT080 20/M02 A3010 RMK AO2 SLP152 T02001022 10200 20044 58010
  • 081656Z AUTO 09012KT 10SM CLR 18/00 A3011 RMK AO2 SLP160 T01780000

TAF KINW
Valid from the 08 at 18:00 until the 09 at 18:00 UTC


081738Z 0818/0918 09012KT P6SM FEW080
FM082100 15018G30KT P6SM SCT080
FM090400 20012KT P6SM BKN060



MET'MAP, your aeronautical weather chart ! - Copyright ORBIFLY December 2007 - Disclaimer

ORBIFLY MET'MAP TEAM :

Programming & Development : Alexandra Zaïnal
Concept & original design : Baudouin d'Aumeries
Assistance for programming : Marc-Olivier Méhu
Technical & hardware support : Manuel Goepfert

Contact : metmap@orbifly.com




SOURCES & CREDITS :

   NOAA       Earth
Advisory